Time;durP1;ratioP1;P1;durP2;ratioP2;P2;SDS_P1;SDS_P2;PMS_P1;PMS_P2;Temp;Humidity;BMP_temperature;BMP_pressure;BME280_temperature;BME280_humidity;BME280_pressure;Samples;Min_cycle;Max_cycle;Signal;HPM_P1;HPM_P2
2022/07/31 00:01:13;;;;;;;0.55;0.55;;;18.10;99.90;;;;;;5091960;28;20036;-72
2022/07/31 00:03:39;;;;;;;0.10;0.10;;;18.10;99.90;;;;;;5091963;28;20095;-72
2022/07/31 00:06:05;;;;;;;0.10;0.10;;;17.90;99.90;;;;;;5090622;28;20115;-71
2022/07/31 00:08:30;;;;;;;0.10;0.10;;;17.90;99.90;;;;;;5092235;28;20107;-71
2022/07/31 00:10:56;;;;;;;0.20;0.20;;;17.90;99.90;;;;;;5091975;28;20052;-72
2022/07/31 00:13:22;;;;;;;0.57;0.57;;;18.00;99.90;;;;;;5091898;28;20036;-72
2022/07/31 00:15:48;;;;;;;0.20;0.20;;;18.10;99.90;;;;;;5091733;28;20020;-72
2022/07/31 00:18:13;;;;;;;0.10;0.10;;;18.20;99.90;;;;;;5091970;28;20095;-72
2022/07/31 00:20:39;;;;;;;0.52;0.52;;;18.00;99.90;;;;;;5090469;28;20111;-72
2022/07/31 00:23:05;;;;;;;1.65;0.70;;;18.10;99.90;;;;;;5091730;28;20039;-72
2022/07/31 00:25:31;;;;;;;0.10;0.10;;;17.90;99.90;;;;;;5090536;28;20024;-72
2022/07/31 00:27:57;;;;;;;0.10;0.10;;;17.90;99.90;;;;;;5091643;28;20032;-72
2022/07/31 00:30:23;;;;;;;0.10;0.10;;;18.10;99.90;;;;;;5091613;28;20112;-72
2022/07/31 00:32:49;;;;;;;0.40;0.40;;;18.10;99.90;;;;;;5091705;28;20035;-72
2022/07/31 00:35:15;;;;;;;0.10;0.10;;;18.20;99.90;;;;;;5091662;28;20017;-72
2022/07/31 00:37:43;;;;;;;0.10;0.10;;;18.20;99.90;;;;;;5091619;28;20024;-71
2022/07/31 00:40:11;;;;;;;0.10;0.10;;;18.70;99.90;;;;;;5091599;28;20013;-72
2022/07/31 00:42:37;;;;;;;0.10;0.10;;;18.70;99.90;;;;;;5092389;28;20024;-71
2022/07/31 00:45:04;;;;;;;0.10;0.10;;;18.40;99.90;;;;;;5095679;28;20512;-72
2022/07/31 00:47:30;;;;;;;0.10;0.10;;;18.20;99.90;;;;;;5095260;28;20027;-72
2022/07/31 00:49:55;;;;;;;0.10;0.10;;;18.10;99.90;;;;;;5095172;28;20032;-71
2022/07/31 00:52:21;;;;;;;0.10;0.10;;;18.20;99.90;;;;;;5095191;28;20027;-72
2022/07/31 00:54:47;;;;;;;0.10;0.10;;;18.30;99.90;;;;;;5095031;28;20101;-72
2022/07/31 00:57:14;;;;;;;0.10;0.10;;;18.40;99.90;;;;;;5095105;28;20022;-72
2022/07/31 00:59:39;;;;;;;0.10;0.10;;;18.40;99.90;;;;;;5093857;28;20169;-72
2022/07/31 01:02:07;;;;;;;0.10;0.10;;;18.50;99.90;;;;;;5095029;28;20079;-71
2022/07/31 01:04:33;;;;;;;0.10;0.10;;;18.70;99.90;;;;;;5094782;28;20138;-71
2022/07/31 01:06:59;;;;;;;0.10;0.10;;;18.60;99.90;;;;;;5094923;28;20498;-72
2022/07/31 01:09:26;;;;;;;0.17;0.17;;;18.60;99.90;;;;;;5094849;28;20035;-72
2022/07/31 01:12:20;;;;;;;0.10;0.10;;;18.50;99.90;;;;;;5094830;28;20038;-72
2022/07/31 01:14:51;;;;;;;0.10;0.10;;;18.50;99.90;;;;;;5094643;28;20028;-71
2022/07/31 01:17:20;;;;;;;0.40;0.40;;;18.20;99.90;;;;;;5094788;28;20107;-72
2022/07/31 01:19:48;;;;;;;0.10;0.10;;;18.30;99.90;;;;;;5094596;28;20020;-71
2022/07/31 01:22:56;;;;;;;0.10;0.10;;;18.10;99.90;;;;;;5094906;28;20024;-72
2022/07/31 01:25:56;;;;;;;0.10;0.10;;;18.00;99.90;;;;;;5094552;28;20060;-72
2022/07/31 01:28:40;;;;;;;0.10;0.10;;;17.90;99.90;;;;;;5094403;28;20028;-72
2022/07/31 01:31:12;;;;;;;0.35;0.28;;;17.80;99.90;;;;;;5094409;28;20031;-72
2022/07/31 01:33:50;;;;;;;0.52;0.52;;;17.80;99.90;;;;;;5094390;28;20039;-71
2022/07/31 01:36:21;;;;;;;0.10;0.10;;;17.70;99.90;;;;;;5094325;28;20439;-71
2022/07/31 01:38:50;;;;;;;0.08;0.08;;;17.90;99.90;;;;;;5094475;28;20487;-71
2022/07/31 01:41:20;;;;;;;0.10;0.10;;;18.10;99.90;;;;;;5094229;28;20020;-72
2022/07/31 01:43:48;;;;;;;0.10;0.10;;;18.10;99.90;;;;;;5092924;28;20020;-71
2022/07/31 01:46:17;;;;;;;0.10;0.10;;;18.10;99.90;;;;;;5094101;28;20028;-71
2022/07/31 01:48:44;;;;;;;0.10;0.10;;;18.00;99.90;;;;;;5094122;28;20079;-72
2022/07/31 01:51:12;;;;;;;0.10;0.10;;;18.00;99.90;;;;;;5094059;28;20515;-72
2022/07/31 01:53:39;;;;;;;0.10;0.10;;;18.00;99.90;;;;;;5092687;28;20380;-72
2022/07/31 01:56:06;;;;;;;0.10;0.10;;;18.10;99.90;;;;;;5093288;28;20016;-71
2022/07/31 01:58:35;;;;;;;0.10;0.10;;;17.70;99.90;;;;;;5093777;28;20031;-72
2022/07/31 02:01:04;;;;;;;0.10;0.10;;;17.60;99.90;;;;;;5093031;28;20413;-71
2022/07/31 02:03:31;;;;;;;0.10;0.10;;;17.40;99.90;;;;;;5093987;28;20032;-72
2022/07/31 02:05:59;;;;;;;0.10;0.10;;;17.40;99.90;;;;;;5093719;28;20081;-72
2022/07/31 02:08:26;;;;;;;0.20;0.20;;;17.40;99.90;;;;;;5093634;28;20042;-72
2022/07/31 02:10:53;;;;;;;0.10;0.10;;;17.60;99.90;;;;;;5093626;28;20119;-72
2022/07/31 02:13:20;;;;;;;0.20;0.20;;;17.80;99.90;;;;;;5093507;28;20024;-72
2022/07/31 02:15:47;;;;;;;0.10;0.10;;;17.70;99.90;;;;;;5093477;28;20035;-72
2022/07/31 02:18:14;;;;;;;0.10;0.10;;;17.40;99.90;;;;;;5093488;28;20498;-71
2022/07/31 02:20:40;;;;;;;0.10;0.10;;;17.40;99.90;;;;;;5093451;28;20020;-72
2022/07/31 02:23:06;;;;;;;0.10;0.10;;;17.30;99.90;;;;;;5093448;28;20837;-72
2022/07/31 02:25:35;;;;;;;0.30;0.30;;;17.50;99.90;;;;;;5093410;28;20024;-72
2022/07/31 02:28:06;;;;;;;0.10;0.10;;;17.60;99.90;;;;;;5092141;28;20356;-71
2022/07/31 02:30:34;;;;;;;0.43;0.43;;;17.70;99.90;;;;;;5093416;28;20072;-72
2022/07/31 02:33:01;;;;;;;0.30;0.30;;;17.80;99.90;;;;;;5093223;28;20506;-72
2022/07/31 02:35:27;;;;;;;0.10;0.10;;;17.80;99.90;;;;;;5093157;28;20037;-72
2022/07/31 02:37:54;;;;;;;0.00;0.00;;;17.70;99.90;;;;;;5091809;28;20024;-72
2022/07/31 02:40:23;;;;;;;0.10;0.10;;;17.70;99.90;;;;;;5093116;28;20028;-72
2022/07/31 02:42:50;;;;;;;0.10;0.10;;;17.80;99.90;;;;;;5093085;28;20132;-72
2022/07/31 02:45:17;;;;;;;0.10;0.10;;;18.00;99.90;;;;;;5092913;28;20103;-71
2022/07/31 02:47:43;;;;;;;0.10;0.10;;;17.80;99.90;;;;;;5092943;28;20027;-72
2022/07/31 02:50:10;;;;;;;0.20;0.20;;;17.80;99.90;;;;;;5092883;28;20024;-71
2022/07/31 02:52:37;;;;;;;0.10;0.10;;;17.80;99.90;;;;;;5092684;28;20036;-71
2022/07/31 02:55:03;;;;;;;0.10;0.10;;;17.80;99.90;;;;;;5092868;28;20375;-72
2022/07/31 02:57:30;;;;;;;0.10;0.10;;;17.90;99.90;;;;;;5092706;28;20222;-71
2022/07/31 02:59:55;;;;;;;0.10;0.10;;;17.80;99.90;;;;;;5092759;28;20032;-72
2022/07/31 03:02:21;;;;;;;0.10;0.10;;;17.90;99.90;;;;;;5092745;28;20479;-71
2022/07/31 03:04:47;;;;;;;0.10;0.10;;;18.00;99.90;;;;;;5092711;28;20059;-72
2022/07/31 03:07:16;;;;;;;0.10;0.10;;;18.00;99.90;;;;;;5091681;28;20069;-72
2022/07/31 03:09:42;;;;;;;0.10;0.10;;;18.10;99.90;;;;;;5092758;28;20016;-72
2022/07/31 03:12:08;;;;;;;0.10;0.10;;;18.30;99.90;;;;;;5092489;28;20016;-72
2022/07/31 03:14:34;;;;;;;0.10;0.10;;;18.50;99.90;;;;;;5092472;28;20031;-72
2022/07/31 03:17:01;;;;;;;0.10;0.10;;;18.30;99.90;;;;;;5092397;28;20020;-71
2022/07/31 03:19:27;;;;;;;0.10;0.10;;;18.30;99.90;;;;;;5091332;28;20032;-72
2022/07/31 03:21:55;;;;;;;0.10;0.10;;;18.00;99.90;;;;;;5074270;28;20070;-72
2022/07/31 03:24:21;;;;;;;0.10;0.10;;;18.10;99.90;;;;;;5092419;28;20024;-72
2022/07/31 03:26:47;;;;;;;0.20;0.20;;;18.10;99.90;;;;;;5092240;28;20020;-72
2022/07/31 03:29:12;;;;;;;0.20;0.20;;;18.20;99.90;;;;;;5092441;28;20039;-71
2022/07/31 03:31:38;;;;;;;0.10;0.10;;;18.40;99.90;;;;;;5092330;28;20095;-72
2022/07/31 03:34:04;;;;;;;0.10;0.10;;;18.40;99.90;;;;;;5092413;28;20028;-72
2022/07/31 03:36:30;;;;;;;0.20;0.20;;;18.30;99.90;;;;;;5092306;28;20387;-72
2022/07/31 03:38:56;;;;;;;0.05;0.05;;;18.30;99.90;;;;;;5092304;28;20020;-72
2022/07/31 03:41:22;;;;;;;0.00;0.00;;;18.30;99.90;;;;;;5092240;28;20047;-72
2022/07/31 03:43:49;;;;;;;0.10;0.10;;;18.30;99.90;;;;;;5092191;28;20032;-71
2022/07/31 03:46:18;;;;;;;0.10;0.10;;;18.10;99.90;;;;;;5092082;28;20483;-72
2022/07/31 03:48:44;;;;;;;0.10;0.10;;;18.10;99.90;;;;;;5092063;28;20451;-72
2022/07/31 03:51:11;;;;;;;0.13;0.13;;;18.10;99.90;;;;;;5092067;28;20434;-72
2022/07/31 03:53:38;;;;;;;0.30;0.30;;;18.20;99.90;;;;;;5091986;28;20052;-72
2022/07/31 03:56:05;;;;;;;0.10;0.10;;;18.10;99.90;;;;;;5091968;28;20027;-72
2022/07/31 03:58:31;;;;;;;0.00;0.00;;;18.30;99.90;;;;;;5092210;28;20020;-72
2022/07/31 04:00:57;;;;;;;0.00;0.00;;;18.50;99.90;;;;;;5091902;28;20016;-72
2022/07/31 04:03:29;;;;;;;0.20;0.20;;;18.70;99.90;;;;;;5091979;28;20024;-72
2022/07/31 04:05:55;;;;;;;0.10;0.10;;;18.70;99.90;;;;;;5091899;28;20046;-72
2022/07/31 04:08:21;;;;;;;0.10;0.10;;;18.70;99.90;;;;;;5091994;28;20396;-70
2022/07/31 04:10:47;;;;;;;0.05;0.05;;;18.60;99.90;;;;;;5091867;28;20027;-70
2022/07/31 04:13:12;;;;;;;0.10;0.10;;;18.50;99.90;;;;;;5091782;28;20024;-70
2022/07/31 04:15:38;;;;;;;0.10;0.10;;;18.50;99.90;;;;;;5090636;28;20035;-70
2022/07/31 04:18:04;;;;;;;0.10;0.10;;;18.60;99.90;;;;;;5093297;28;20378;-70
2022/07/31 04:20:30;;;;;;;0.10;0.10;;;18.60;99.90;;;;;;5096153;28;20020;-70
2022/07/31 04:22:55;;;;;;;0.10;0.10;;;18.40;99.90;;;;;;5094391;28;20024;-70
2022/07/31 04:25:21;;;;;;;0.10;0.10;;;18.30;99.90;;;;;;5095741;28;20039;-70
2022/07/31 04:27:47;;;;;;;0.20;0.20;;;18.20;99.90;;;;;;5095608;28;20028;-70
2022/07/31 04:30:13;;;;;;;0.10;0.10;;;18.20;99.90;;;;;;5095729;28;20020;-70
2022/07/31 04:32:39;;;;;;;0.10;0.10;;;18.20;99.90;;;;;;5095603;28;20040;-70
2022/07/31 04:35:06;;;;;;;0.10;0.10;;;18.30;99.90;;;;;;5094280;28;20447;-70
2022/07/31 04:37:32;;;;;;;0.10;0.10;;;18.30;99.90;;;;;;5095406;28;20677;-70
2022/07/31 04:39:58;;;;;;;0.10;0.10;;;18.30;99.90;;;;;;5095526;28;20488;-70
2022/07/31 04:42:23;;;;;;;0.10;0.10;;;18.20;99.90;;;;;;5095357;28;20051;-70
2022/07/31 04:44:49;;;;;;;0.10;0.10;;;18.20;99.90;;;;;;5095389;28;20483;-70
2022/07/31 04:47:15;;;;;;;0.10;0.10;;;18.20;99.90;;;;;;5095236;28;20024;-70
2022/07/31 04:49:41;;;;;;;0.10;0.10;;;18.10;99.90;;;;;;5094241;28;20482;-70
2022/07/31 04:52:07;;;;;;;0.10;0.10;;;18.00;99.90;;;;;;5095311;28;20467;-70
2022/07/31 04:54:33;;;;;;;0.10;0.10;;;18.10;99.90;;;;;;5095074;28;20097;-70
2022/07/31 04:56:59;;;;;;;0.05;0.05;;;18.00;99.90;;;;;;5093842;28;20426;-70
2022/07/31 04:59:25;;;;;;;0.10;0.10;;;18.10;99.90;;;;;;5095065;28;20361;-70
2022/07/31 05:01:50;;;;;;;0.10;0.10;;;18.20;99.90;;;;;;5094988;28;20383;-70
2022/07/31 05:04:17;;;;;;;0.10;0.10;;;18.30;99.90;;;;;;5094791;28;20113;-70
2022/07/31 05:06:52;;;;;;;0.08;0.08;;;18.20;99.90;;;;;;5093470;28;20032;-70
2022/07/31 05:09:24;;;;;;;0.10;0.10;;;18.20;99.90;;;;;;5094862;28;20044;-71
2022/07/31 05:11:51;;;;;;;0.10;0.10;;;18.40;99.90;;;;;;5094797;28;20020;-70
2022/07/31 05:14:18;;;;;;;0.17;0.17;;;18.30;99.90;;;;;;5094844;28;20384;-70
2022/07/31 05:16:45;;;;;;;0.10;0.10;;;18.20;99.90;;;;;;5094712;28;20027;-70
2022/07/31 05:19:11;;;;;;;0.10;0.10;;;18.20;99.90;;;;;;5093757;28;20391;-70
2022/07/31 05:21:37;;;;;;;0.10;0.10;;;18.20;99.90;;;;;;5093407;28;20020;-70
2022/07/31 05:24:03;;;;;;;0.10;0.10;;;18.30;99.90;;;;;;5094477;28;20023;-70
2022/07/31 05:26:29;;;;;;;0.35;0.35;;;18.30;99.90;;;;;;5094926;28;20032;-70
2022/07/31 05:28:57;;;;;;;0.10;0.10;;;18.30;99.90;;;;;;5093801;28;20034;-70
2022/07/31 05:31:23;;;;;;;0.10;0.10;;;18.30;99.90;;;;;;5094268;28;20391;-70
2022/07/31 05:33:50;;;;;;;0.10;0.10;;;18.40;99.90;;;;;;5093125;28;20027;-70
2022/07/31 05:36:36;;;;;;;0.10;0.10;;;18.60;99.90;;;;;;5093365;28;20094;-70
2022/07/31 05:39:01;;;;;;;0.15;0.15;;;18.60;99.90;;;;;;5094257;28;20031;-70
2022/07/31 05:41:28;;;;;;;0.08;0.08;;;18.70;99.90;;;;;;5076238;28;20115;-70
2022/07/31 05:43:54;;;;;;;0.10;0.10;;;18.70;99.90;;;;;;5094234;28;20035;-70
2022/07/31 05:46:20;;;;;;;0.10;0.10;;;18.70;99.90;;;;;;5094201;28;20024;-70
2022/07/31 05:48:45;;;;;;;0.00;0.00;;;18.80;99.90;;;;;;5094019;28;20073;-70
2022/07/31 05:51:13;;;;;;;0.17;0.17;;;18.80;99.90;;;;;;5094038;28;20028;-70
2022/07/31 05:53:40;;;;;;;0.10;0.10;;;18.90;99.90;;;;;;5093827;28;20024;-71
2022/07/31 05:56:06;;;;;;;0.10;0.10;;;18.90;99.90;;;;;;5093988;28;20024;-70
2022/07/31 05:58:33;;;;;;;0.10;0.10;;;18.90;99.90;;;;;;5093815;28;20281;-70
2022/07/31 06:00:59;;;;;;;0.30;0.30;;;18.90;99.90;;;;;;5094000;28;20027;-70
2022/07/31 06:03:26;;;;;;;0.17;0.17;;;18.80;99.90;;;;;;5093755;28;20028;-69
2022/07/31 06:05:53;;;;;;;0.20;0.20;;;18.90;99.90;;;;;;5093618;28;20062;-70
2022/07/31 06:08:19;;;;;;;0.10;0.10;;;19.00;99.90;;;;;;5093640;28;20020;-70
2022/07/31 06:10:45;;;;;;;0.10;0.10;;;19.20;99.90;;;;;;5093774;28;20498;-70
2022/07/31 06:13:12;;;;;;;0.10;0.10;;;19.40;99.90;;;;;;5093582;28;20024;-70
2022/07/31 06:15:38;;;;;;;1.25;1.20;;;19.50;99.90;;;;;;5093708;28;20042;-72
2022/07/31 06:18:04;;;;;;;0.20;0.20;;;19.70;99.90;;;;;;5092330;28;20023;-70
2022/07/31 06:20:30;;;;;;;0.10;0.10;;;19.80;99.90;;;;;;5092267;28;20513;-70
2022/07/31 06:22:56;;;;;;;0.17;0.17;;;20.00;99.90;;;;;;5093413;28;20027;-70
2022/07/31 06:25:21;;;;;;;0.10;0.10;;;20.00;99.90;;;;;;5093490;28;20470;-70
2022/07/31 06:27:47;;;;;;;0.10;0.10;;;20.00;99.90;;;;;;5093241;28;20445;-70
2022/07/31 06:30:13;;;;;;;0.10;0.10;;;20.00;99.90;;;;;;5093428;28;20056;-71
2022/07/31 06:32:39;;;;;;;0.10;0.10;;;20.10;99.90;;;;;;5093210;28;20480;-71
2022/07/31 06:35:05;;;;;;;12.77;0.55;;;20.30;99.90;;;;;;5093273;28;20020;-71
2022/07/31 06:37:31;;;;;;;0.00;0.00;;;20.10;99.90;;;;;;5092895;28;20027;-71
2022/07/31 06:39:57;;;;;;;0.10;0.10;;;20.10;99.90;;;;;;5093479;28;20521;-71
2022/07/31 06:42:24;;;;;;;0.50;0.50;;;20.20;99.90;;;;;;5093250;28;20074;-71
2022/07/31 06:44:51;;;;;;;0.10;0.10;;;20.10;99.90;;;;;;5092946;28;20103;-70
2022/07/31 06:47:19;;;;;;;0.10;0.10;;;20.10;99.90;;;;;;5092880;28;20028;-71
2022/07/31 06:49:45;;;;;;;0.05;0.05;;;20.10;99.90;;;;;;5092922;28;20066;-70
2022/07/31 06:52:10;;;;;;;0.10;0.10;;;20.20;99.90;;;;;;5092970;28;20456;-71
2022/07/31 06:54:36;;;;;;;0.10;0.10;;;20.30;99.90;;;;;;5092827;28;20221;-71
2022/07/31 06:57:03;;;;;;;2.22;0.50;;;20.60;99.90;;;;;;5092645;28;20024;-71
2022/07/31 06:59:29;;;;;;;0.10;0.10;;;20.60;99.90;;;;;;5092858;28;20107;-71
2022/07/31 07:01:55;;;;;;;0.10;0.10;;;20.60;99.90;;;;;;5092740;28;20076;-71
2022/07/31 07:04:20;;;;;;;0.00;0.00;;;20.70;99.90;;;;;;5092492;28;20431;-71
2022/07/31 07:06:46;;;;;;;1.65;0.45;;;20.90;99.90;;;;;;5092564;28;20111;-71
2022/07/31 07:09:12;;;;;;;0.80;0.57;;;21.00;99.90;;;;;;5092488;28;20093;-71
2022/07/31 07:11:38;;;;;;;0.00;0.00;;;21.00;99.90;;;;;;5092585;28;20112;-71
2022/07/31 07:14:03;;;;;;;0.60;0.60;;;20.90;99.90;;;;;;5092392;28;20440;-70
2022/07/31 07:16:29;;;;;;;0.10;0.10;;;20.90;99.90;;;;;;5091358;28;20024;-71
2022/07/31 07:18:55;;;;;;;0.10;0.10;;;21.00;99.90;;;;;;5092127;28;20437;-71
2022/07/31 07:21:21;;;;;;;0.10;0.10;;;21.00;99.90;;;;;;5092375;28;20039;-71
2022/07/31 07:23:47;;;;;;;0.17;0.17;;;20.80;99.90;;;;;;5092409;28;20109;-70
2022/07/31 07:26:13;;;;;;;0.10;0.10;;;21.00;99.90;;;;;;5092345;28;20020;-71
2022/07/31 07:28:39;;;;;;;0.10;0.10;;;21.00;99.90;;;;;;5092222;28;20028;-71
2022/07/31 07:31:05;;;;;;;0.10;0.10;;;21.10;99.90;;;;;;5092422;28;20464;-71
2022/07/31 07:33:31;;;;;;;0.20;0.20;;;21.10;99.90;;;;;;5092204;28;20016;-71
2022/07/31 07:35:57;;;;;;;0.10;0.10;;;21.20;99.90;;;;;;5092294;28;20024;-71
2022/07/31 07:38:23;;;;;;;0.10;0.10;;;21.20;99.90;;;;;;5092145;28;20043;-70
2022/07/31 07:40:49;;;;;;;0.30;0.30;;;21.10;99.90;;;;;;5092397;28;20028;-71
2022/07/31 07:43:17;;;;;;;0.20;0.20;;;21.20;99.90;;;;;;5092296;28;20522;-71
2022/07/31 07:45:43;;;;;;;0.32;0.32;;;21.30;99.90;;;;;;5092410;28;20039;-71
2022/07/31 07:48:09;;;;;;;0.00;0.00;;;21.20;99.90;;;;;;5091320;28;20028;-70
2022/07/31 07:50:35;;;;;;;1.85;0.38;;;21.30;99.90;;;;;;5091933;28;20030;-71
2022/07/31 07:53:00;;;;;;;0.08;0.08;;;21.00;99.90;;;;;;5092630;28;20039;-71
2022/07/31 07:55:26;;;;;;;0.10;0.10;;;21.20;99.90;;;;;;5096266;28;20103;-71
2022/07/31 07:57:52;;;;;;;0.10;0.10;;;21.30;99.90;;;;;;5096193;28;20081;-71
2022/07/31 08:00:18;;;;;;;0.00;0.00;;;21.60;99.90;;;;;;5096154;28;20074;-71
2022/07/31 08:02:45;;;;;;;0.10;0.10;;;21.70;99.90;;;;;;5096225;28;20488;-70
2022/07/31 08:05:11;;;;;;;0.00;0.00;;;21.50;99.90;;;;;;5095954;28;20028;-71
2022/07/31 08:07:39;;;;;;;0.08;0.08;;;21.50;99.90;;;;;;5096015;28;20050;-71
2022/07/31 08:10:06;;;;;;;0.00;0.00;;;21.50;99.90;;;;;;5095988;28;20031;-70
2022/07/31 08:12:32;;;;;;;0.50;0.32;;;21.60;99.90;;;;;;5095211;28;20024;-71
2022/07/31 08:14:58;;;;;;;0.00;0.00;;;21.40;99.90;;;;;;5094844;28;20024;-70
2022/07/31 08:17:24;;;;;;;0.05;0.05;;;21.40;99.90;;;;;;5095724;28;20498;-71
2022/07/31 08:19:50;;;;;;;0.00;0.00;;;21.60;99.90;;;;;;5095707;28;20020;-71
2022/07/31 08:22:17;;;;;;;0.25;0.25;;;21.50;99.90;;;;;;5095856;28;20527;-71
2022/07/31 08:24:42;;;;;;;0.10;0.10;;;21.50;99.90;;;;;;5094342;28;20062;-71
2022/07/31 08:27:23;;;;;;;0.10;0.10;;;21.40;99.90;;;;;;5095714;28;20039;-71
2022/07/31 08:29:57;;;;;;;0.10;0.10;;;21.30;99.90;;;;;;5095625;28;20024;-70
2022/07/31 08:32:24;;;;;;;0.05;0.05;;;21.50;99.90;;;;;;5095626;28;20057;-71
2022/07/31 08:34:50;;;;;;;0.00;0.00;;;21.80;99.90;;;;;;5094254;28;20103;-71
2022/07/31 08:37:19;;;;;;;0.10;0.10;;;22.00;99.90;;;;;;5095428;28;20020;-71
2022/07/31 08:39:46;;;;;;;0.13;0.13;;;22.00;99.90;;;;;;5095402;28;20026;-71
2022/07/31 08:42:13;;;;;;;0.17;0.17;;;22.00;99.90;;;;;;5095415;28;20027;-71
2022/07/31 08:44:41;;;;;;;0.15;0.15;;;22.00;99.90;;;;;;5095235;28;20119;-71
2022/07/31 08:47:11;;;;;;;0.00;0.00;;;21.90;99.90;;;;;;5094085;28;20024;-71
2022/07/31 08:49:48;;;;;;;0.10;0.10;;;22.00;99.90;;;;;;5095243;28;20020;-71
2022/07/31 08:52:20;;;;;;;0.35;0.35;;;22.20;99.40;;;;;;5095355;28;20099;-71
2022/07/31 08:54:48;;;;;;;0.32;0.32;;;22.40;99.50;;;;;;5095089;28;20023;-71
2022/07/31 08:57:14;;;;;;;1.23;0.73;;;22.40;98.40;;;;;;5095082;28;20110;-71
2022/07/31 08:59:40;;;;;;;0.10;0.10;;;22.40;98.20;;;;;;5095026;28;20020;-71
2022/07/31 09:02:08;;;;;;;0.00;0.00;;;22.40;98.10;;;;;;5095109;28;20099;-72
2022/07/31 09:04:33;;;;;;;0.68;0.68;;;22.70;98.40;;;;;;5094695;28;20032;-71
2022/07/31 09:07:00;;;;;;;1.45;0.77;;;22.80;95.30;;;;;;5093676;28;20103;-71
2022/07/31 09:09:30;;;;;;;0.10;0.10;;;22.90;95.20;;;;;;5094855;28;20024;-71
2022/07/31 09:11:56;;;;;;;0.10;0.10;;;23.40;94.60;;;;;;5094870;28;20032;-71
2022/07/31 09:14:33;;;;;;;0.50;0.50;;;23.60;94.10;;;;;;5094614;28;20368;-71
2022/07/31 09:17:00;;;;;;;0.28;0.28;;;23.80;92.20;;;;;;5094720;28;20020;-71
2022/07/31 09:19:41;;;;;;;0.00;0.00;;;23.70;91.60;;;;;;5094612;28;20069;-71
2022/07/31 09:22:21;;;;;;;0.10;0.10;;;23.40;91.80;;;;;;5094629;28;20020;-71
2022/07/31 09:24:47;;;;;;;1.25;0.95;;;23.60;92.40;;;;;;5092750;28;20024;-71
2022/07/31 09:27:16;;;;;;;0.10;0.10;;;23.30;91.30;;;;;;5091760;28;20368;-71
2022/07/31 09:29:44;;;;;;;0.55;0.47;;;23.80;91.60;;;;;;5093048;28;20094;-71
2022/07/31 09:32:18;;;;;;;0.63;0.40;;;24.10;90.00;;;;;;5093863;28;20081;-71
2022/07/31 09:34:45;;;;;;;0.77;0.50;;;24.20;88.50;;;;;;5093151;28;20514;-71
2022/07/31 09:37:12;;;;;;;0.00;0.00;;;24.50;87.40;;;;;;5094223;28;20062;-71
2022/07/31 09:39:39;;;;;;;0.10;0.10;;;25.00;85.60;;;;;;5093291;28;20016;-71
2022/07/31 09:42:06;;;;;;;0.20;0.20;;;25.60;82.60;;;;;;5094178;28;20106;-71
2022/07/31 09:44:43;;;;;;;0.10;0.10;;;25.80;80.20;;;;;;5092908;28;20505;-71
2022/07/31 09:47:25;;;;;;;0.40;0.40;;;25.20;80.00;;;;;;5094013;28;20020;-71
2022/07/31 09:49:57;;;;;;;0.05;0.05;;;25.20;77.30;;;;;;5094556;28;20415;-71
2022/07/31 09:52:23;;;;;;;;;;;25.50;77.70;;;;;;5094350;28;20078;-71
2022/07/31 09:54:59;;;;;;;0.08;0.05;;;25.80;74.20;;;;;;5093818;28;19911;-71
2022/07/31 09:57:25;;;;;;;0.43;0.43;;;26.40;77.30;;;;;;5093913;28;20023;-71
2022/07/31 09:59:51;;;;;;;0.00;0.00;;;26.60;74.90;;;;;;5094008;28;20020;-72
2022/07/31 10:02:18;;;;;;;0.00;0.00;;;27.10;73.80;;;;;;5093690;28;20027;-72
2022/07/31 10:04:46;;;;;;;0.17;0.10;;;27.20;71.60;;;;;;5093654;28;20031;-72
2022/07/31 10:07:13;;;;;;;0.20;0.20;;;27.70;70.40;;;;;;5093866;28;20024;-72
2022/07/31 10:09:39;;;;;;;9.73;3.92;;;27.60;68.70;;;;;;5093704;28;20042;-72
2022/07/31 10:12:09;;;;;;;0.00;0.00;;;27.60;70.90;;;;;;5094014;28;20034;-70
2022/07/31 10:14:39;;;;;;;0.20;0.20;;;28.10;64.70;;;;;;5092361;28;20024;-70
2022/07/31 10:17:06;;;;;;;0.10;0.10;;;28.10;66.60;;;;;;5091815;28;20031;-70
2022/07/31 10:19:37;;;;;;;0.20;0.20;;;28.20;67.60;;;;;;5092466;28;20085;-70
2022/07/31 10:22:04;;;;;;;0.10;0.10;;;28.00;62.70;;;;;;5093460;28;20099;-70
2022/07/31 10:24:32;;;;;;;1.50;0.30;;;27.20;62.90;;;;;;5093514;28;20036;-70
2022/07/31 10:26:58;;;;;;;0.00;0.00;;;27.40;65.10;;;;;;5093210;28;20036;-70
2022/07/31 10:29:25;;;;;;;0.93;0.05;;;27.80;67.30;;;;;;5093449;28;20028;-70
2022/07/31 10:31:51;;;;;;;0.00;0.00;;;28.10;61.00;;;;;;5093233;28;20456;-70
2022/07/31 10:34:18;;;;;;;0.73;0.70;;;28.50;59.00;;;;;;5093136;28;20067;-70
2022/07/31 10:36:47;;;;;;;0.00;0.00;;;28.40;58.30;;;;;;5093028;28;20436;-70
2022/07/31 10:39:23;;;;;;;0.22;0.22;;;28.20;58.80;;;;;;5093142;28;20020;-70
2022/07/31 10:41:55;;;;;;;1.05;0.90;;;28.10;59.00;;;;;;5092914;28;20026;-70
2022/07/31 10:44:30;;;;;;;0.20;0.20;;;28.40;58.90;;;;;;5093060;28;20533;-70
2022/07/31 10:46:57;;;;;;;0.10;0.10;;;28.70;58.10;;;;;;5092755;28;20107;-70
2022/07/31 10:49:39;;;;;;;139.10;7.45;;;28.90;58.50;;;;;;5093011;28;20035;-70
2022/07/31 10:52:05;;;;;;;0.03;0.03;;;28.90;58.00;;;;;;5092984;28;20031;-70
2022/07/31 10:54:39;;;;;;;0.00;0.00;;;28.70;59.30;;;;;;5092831;28;20384;-70
2022/07/31 10:57:05;;;;;;;0.00;0.00;;;28.90;58.10;;;;;;5092747;28;20020;-71
2022/07/31 10:59:31;;;;;;;0.35;0.20;;;28.80;59.00;;;;;;5092751;28;20027;-71
2022/07/31 11:01:57;;;;;;;0.15;0.13;;;28.50;58.50;;;;;;5092557;28;20070;-71
2022/07/31 11:04:33;;;;;;;0.35;0.35;;;27.70;59.50;;;;;;5091737;28;20059;-70
2022/07/31 11:06:59;;;;;;;0.25;0.25;;;27.20;59.20;;;;;;5089661;22;20049;-72
2022/07/31 11:09:27;;;;;;;1.17;1.08;;;27.00;60.00;;;;;;5072301;28;20017;-73
2022/07/31 11:11:53;;;;;;;0.22;0.22;;;26.80;62.60;;;;;;5072252;28;20158;-73
2022/07/31 11:14:37;;;;;;;0.17;0.17;;;26.70;60.60;;;;;;5072254;28;20029;-73
2022/07/31 11:17:03;;;;;;;0.00;0.00;;;26.50;59.50;;;;;;5072157;28;20024;-73
2022/07/31 11:19:42;;;;;;;0.10;0.10;;;26.40;61.10;;;;;;5070992;28;20392;-73
2022/07/31 11:22:14;;;;;;;0.10;0.10;;;26.50;59.00;;;;;;5072179;28;20119;-73
2022/07/31 11:24:40;;;;;;;0.03;0.03;;;26.70;59.30;;;;;;5071105;28;20505;-73
2022/07/31 11:27:06;;;;;;;0.00;0.00;;;27.30;60.20;;;;;;5071390;28;20056;-73
2022/07/31 11:29:39;;;;;;;0.00;0.00;;;27.70;58.50;;;;;;5072152;28;20020;-73
2022/07/31 11:32:04;;;;;;;0.00;0.00;;;27.90;57.70;;;;;;5070945;28;20149;-73
2022/07/31 11:34:54;;;;;;;0.00;0.00;;;27.80;56.70;;;;;;5072089;28;20489;-73
2022/07/31 11:37:27;;;;;;;0.00;0.00;;;27.30;57.20;;;;;;5072027;28;20024;-73
2022/07/31 11:39:53;;;;;;;0.38;0.13;;;27.30;57.60;;;;;;5071809;28;20062;-73
2022/07/31 11:42:21;;;;;;;16.45;0.55;;;27.40;57.70;;;;;;5071869;28;20054;-73
2022/07/31 11:44:47;;;;;;;0.30;0.30;;;27.50;56.00;;;;;;5071991;28;20116;-73
2022/07/31 11:47:13;;;;;;;0.20;0.20;;;27.50;55.60;;;;;;5070587;28;20493;-73
2022/07/31 11:49:39;;;;;;;0.00;0.00;;;27.30;56.90;;;;;;5070619;28;20103;-73
2022/07/31 11:52:07;;;;;;;0.47;0.30;;;27.20;57.40;;;;;;5071941;28;20502;-73
2022/07/31 11:54:33;;;;;;;0.30;0.30;;;27.90;56.40;;;;;;5071866;28;20020;-73
2022/07/31 11:56:59;;;;;;;1.17;0.32;;;28.50;54.70;;;;;;5071711;28;20032;-73
2022/07/31 11:59:32;;;;;;;0.38;0.35;;;28.90;54.50;;;;;;5071854;28;20096;-73
2022/07/31 12:02:09;;;;;;;0.00;0.00;;;28.30;55.30;;;;;;5071750;28;20026;-73
2022/07/31 12:04:37;;;;;;;0.32;0.32;;;27.90;52.20;;;;;;5070523;28;20414;-73
2022/07/31 12:07:04;;;;;;;0.08;0.08;;;27.30;49.40;;;;;;5070101;28;20120;-72
2022/07/31 12:09:31;;;;;;;0.00;0.00;;;26.90;50.80;;;;;;5071664;28;20025;-73
2022/07/31 12:11:57;;;;;;;0.00;0.00;;;27.00;50.70;;;;;;5070447;28;20028;-73
2022/07/31 12:14:31;;;;;;;0.25;0.25;;;27.00;50.50;;;;;;5071617;28;20028;-73
2022/07/31 12:16:58;;;;;;;0.00;0.00;;;26.80;51.80;;;;;;5070247;28;20020;-73
2022/07/31 12:19:41;;;;;;;0.20;0.20;;;26.90;52.60;;;;;;5071488;28;20041;-72
2022/07/31 12:22:16;;;;;;;0.17;0.17;;;26.90;52.40;;;;;;5071518;28;20051;-72
2022/07/31 12:24:42;;;;;;;0.00;0.00;;;26.90;53.10;;;;;;5071565;28;20379;-72
2022/07/31 12:27:12;;;;;;;0.00;0.00;;;27.00;53.60;;;;;;5071244;28;20434;-72
2022/07/31 12:29:38;;;;;;;0.57;0.30;;;26.70;54.50;;;;;;5071578;28;20024;-73
2022/07/31 12:32:05;;;;;;;0.00;0.00;;;26.70;55.00;;;;;;5071340;28;20142;-72
2022/07/31 12:34:38;;;;;;;0.10;0.10;;;26.80;55.00;;;;;;5069951;28;20017;-72
2022/07/31 12:37:12;;;;;;;0.25;0.22;;;26.70;55.00;;;;;;5071175;28;20064;-72
2022/07/31 12:39:53;;;;;;;0.38;0.38;;;26.80;55.60;;;;;;5073770;28;20490;-72
2022/07/31 12:42:24;;;;;;;0.05;0.05;;;26.90;55.50;;;;;;5066337;28;20013;-73
2022/07/31 12:44:51;;;;;;;0.10;0.10;;;27.20;56.10;;;;;;5059866;28;20112;-72
2022/07/31 12:47:25;;;;;;;0.00;0.00;;;27.20;55.80;;;;;;5074968;28;20056;-72
2022/07/31 12:49:52;;;;;;;0.00;0.00;;;26.80;56.80;;;;;;5074741;28;20060;-72
2022/07/31 12:52:19;;;;;;;0.20;0.20;;;26.80;57.80;;;;;;5080114;28;20024;-72